createdAt,value
2022-09-22T00:02:01.967Z,101379.22
2022-09-22T00:07:06.221Z,101384.13
2022-09-22T00:12:09.070Z,101384.69
2022-09-22T00:17:12.273Z,101384.97
2022-09-22T00:22:16.425Z,101383.03
2022-09-22T00:27:19.244Z,101383.22
2022-09-22T00:32:21.842Z,101385.28
2022-09-22T00:37:26.143Z,101378.09
2022-09-22T00:42:29.156Z,101376.38
2022-09-22T00:47:36.017Z,101377.25
2022-09-22T00:52:48.054Z,101362.84
2022-09-22T00:57:54.109Z,101359.78
2022-09-22T01:03:00.232Z,101363.91
2022-09-22T01:08:04.545Z,101371.06
2022-09-22T01:13:21.494Z,101361.41
2022-09-22T01:18:34.941Z,101357.25
2022-09-22T01:24:17.255Z,101353.72
2022-09-22T01:29:53.741Z,101350.34
2022-09-22T01:35:05.236Z,101350.66
2022-09-22T01:40:13.263Z,101342.16
2022-09-22T01:45:19.383Z,101351.25
2022-09-22T01:50:28.277Z,101346.28
2022-09-22T01:55:34.868Z,101347.56
2022-09-22T02:00:41.889Z,101345.91
2022-09-22T02:05:48.652Z,101335.47
2022-09-22T02:10:54.609Z,101334.59
2022-09-22T02:16:03.485Z,101332.16
2022-09-22T02:21:07.744Z,101327.91
2022-09-22T02:26:12.605Z,101329.66
2022-09-22T02:31:20.818Z,101321.88
2022-09-22T02:36:39.870Z,101320.22
2022-09-22T02:41:57.169Z,101314.25
2022-09-22T02:47:05.104Z,101319.84
2022-09-22T02:52:13.884Z,101305.41
2022-09-22T02:57:16.697Z,101319.63
2022-09-22T03:02:19.590Z,101313.19
2022-09-22T03:07:23.749Z,101305.75
2022-09-22T03:12:26.547Z,101303.22
2022-09-22T03:17:29.224Z,101299.75
2022-09-22T03:22:33.494Z,101290.09
2022-09-22T03:27:36.331Z,101285.84
2022-09-22T03:32:39.741Z,101287.91
2022-09-22T03:37:43.981Z,101291.13
2022-09-22T03:42:46.930Z,101284.97
2022-09-22T03:47:49.806Z,101281.94
2022-09-22T03:52:54.009Z,101280.28
2022-09-22T03:57:56.823Z,101279.84
2022-09-22T04:02:59.963Z,101282.69
2022-09-22T04:08:04.515Z,101277.38
2022-09-22T04:13:07.341Z,101275.28
2022-09-22T04:18:10.343Z,101276.84
2022-09-22T04:23:17.242Z,101270.34
2022-09-22T04:28:20.321Z,101260.63
2022-09-22T04:33:23.472Z,101266.13
2022-09-22T04:38:27.802Z,101266.19
2022-09-22T04:43:30.641Z,101261.06
2022-09-22T04:48:33.476Z,101250.78
2022-09-22T04:53:37.656Z,101255.06
2022-09-22T04:58:40.587Z,101252.47
2022-09-22T05:03:43.429Z,101258.50
2022-09-22T05:08:47.579Z,101259.31
2022-09-22T05:13:50.920Z,101263.47
2022-09-22T05:18:53.981Z,101267.66
2022-09-22T05:23:58.248Z,101263.38
2022-09-22T05:29:01.209Z,101269.38
2022-09-22T05:34:04.079Z,101271.59
2022-09-22T05:39:08.223Z,101266.28
2022-09-22T05:44:11.092Z,101281.50
2022-09-22T05:49:13.924Z,101269.75
2022-09-22T05:54:22.535Z,101272.81
2022-09-22T05:59:26.172Z,101273.72
2022-09-22T06:04:29.028Z,101278.75
2022-09-22T06:09:33.499Z,101269.84
2022-09-22T06:14:36.308Z,101265.72
2022-09-22T06:19:39.047Z,101271.22
2022-09-22T06:24:43.280Z,101271.41
2022-09-22T06:29:46.131Z,101269.72
2022-09-22T06:34:51.871Z,101274.53
2022-09-22T06:39:56.051Z,101272.25
2022-09-22T06:44:58.851Z,101267.94
2022-09-22T06:50:05.587Z,101263.22
2022-09-22T06:55:10.761Z,101268.81
2022-09-22T07:00:15.100Z,101267.28
2022-09-22T07:05:21.274Z,101264.06
2022-09-22T07:10:25.474Z,101267.66
2022-09-22T07:15:30.092Z,101269.25
2022-09-22T07:20:33.632Z,101267.53
2022-09-22T07:25:37.813Z,101266.50
2022-09-22T07:30:41.945Z,101265.44
2022-09-22T07:35:44.702Z,101261.28
2022-09-22T07:40:54.420Z,101264.69
2022-09-22T07:45:57.849Z,101254.41
2022-09-22T07:51:00.642Z,101256.00
2022-09-22T07:56:07.265Z,101260.41
2022-09-22T08:01:10.986Z,101261.00
2022-09-22T08:06:16.057Z,101257.34
2022-09-22T08:11:22.137Z,101253.16
2022-09-22T08:16:28.253Z,101256.06
2022-09-22T08:21:35.347Z,101256.22
2022-09-22T08:26:42.732Z,101253.06
2022-09-22T08:31:49.617Z,101242.97
2022-09-22T08:36:52.950Z,101243.56
2022-09-22T08:42:05.992Z,101240.72
2022-09-22T08:47:37.958Z,101243.94
2022-09-22T08:52:46.863Z,101234.66
2022-09-22T08:58:07.203Z,101236.34
2022-09-22T09:03:27.657Z,101240.94
2022-09-22T09:09:05.551Z,101238.47
2022-09-22T09:14:24.211Z,101237.06
2022-09-22T09:19:33.703Z,101234.78
2022-09-22T09:30:11.311Z,101229.13
2022-09-22T09:35:15.951Z,101223.44
2022-09-22T09:40:22.101Z,101234.22
2022-09-22T09:52:20.401Z,101218.25
2022-09-22T09:57:27.868Z,101209.75
2022-09-22T10:02:32.988Z,101209.81
2022-09-22T10:07:44.462Z,101206.66
2022-09-22T10:12:47.145Z,101198.78
2022-09-22T10:17:49.942Z,101186.09
2022-09-22T10:22:55.035Z,101185.41
2022-09-22T10:28:03.443Z,101182.00
2022-09-22T10:33:18.329Z,101172.09
2022-09-22T10:38:24.825Z,101164.56
2022-09-22T10:43:37.920Z,101156.06
2022-09-22T10:48:46.177Z,101146.91
2022-09-22T10:54:13.405Z,101165.66
2022-09-22T10:59:39.379Z,101142.47
2022-09-22T11:04:55.474Z,101150.59
2022-09-22T11:10:29.526Z,101139.94
2022-09-22T11:15:47.375Z,101139.41
2022-09-22T11:20:57.257Z,101133.75
2022-09-22T11:26:18.793Z,101140.19
2022-09-22T11:31:37.846Z,101124.75
2022-09-22T11:36:51.594Z,101115.69
2022-09-22T11:42:11.042Z,101107.84
2022-09-22T11:47:42.326Z,101115.78
2022-09-22T11:53:01.405Z,101113.56
2022-09-22T11:58:10.759Z,101115.03
2022-09-22T12:03:18.838Z,101113.47
2022-09-22T12:08:24.082Z,101110.38
2022-09-22T12:13:29.807Z,101102.59
2022-09-22T12:18:42.578Z,101096.78
2022-09-22T12:23:51.286Z,101083.59
2022-09-22T12:28:57.934Z,101072.22
2022-09-22T12:34:00.788Z,101078.66
2022-09-22T12:39:18.153Z,101055.31
2022-09-22T12:44:25.473Z,101060.22
2022-09-22T12:49:28.285Z,101046.84
2022-09-22T12:54:38.950Z,101057.75
2022-09-22T13:00:08.053Z,101062.16
2022-09-22T13:05:33.274Z,101041.38
2022-09-22T13:10:42.547Z,101043.28
2022-09-22T13:16:02.342Z,101046.97
2022-09-22T13:21:20.349Z,101039.75
2022-09-22T13:26:25.756Z,101025.22
2022-09-22T13:31:36.585Z,101012.91
2022-09-22T13:36:40.044Z,101019.47
2022-09-22T13:41:47.253Z,101016.84
2022-09-22T13:46:51.989Z,101013.34
2022-09-22T13:51:58.624Z,101008.59
2022-09-22T13:57:03.298Z,101012.72
2022-09-22T14:02:10.249Z,101002.28
2022-09-22T14:07:13.728Z,100991.47
2022-09-22T14:12:17.248Z,100979.69
2022-09-22T14:17:26.812Z,100987.78
2022-09-22T14:22:32.773Z,100991.00
2022-09-22T14:27:45.159Z,100982.53
2022-09-22T14:32:52.227Z,100973.34
2022-09-22T14:38:02.813Z,100971.56
2022-09-22T14:43:24.215Z,100968.81
2022-09-22T14:48:33.376Z,100957.78
2022-09-22T14:53:43.510Z,100953.34
2022-09-22T14:58:52.177Z,100952.47
2022-09-22T15:04:00.763Z,100942.63
2022-09-22T15:09:05.455Z,100942.06
2022-09-22T15:14:42.039Z,100942.03
2022-09-22T15:19:50.394Z,100943.06
2022-09-22T15:24:53.098Z,100931.38
2022-09-22T15:29:57.622Z,100925.66
2022-09-22T15:35:01.671Z,100919.97
2022-09-22T15:40:16.453Z,100912.00
2022-09-22T15:45:22.462Z,100917.91
2022-09-22T15:50:30.602Z,100912.59
2022-09-22T15:55:34.353Z,100911.13
2022-09-22T16:00:38.923Z,100908.69
2022-09-22T16:05:44.824Z,100912.41
2022-09-22T16:10:47.557Z,100910.06
2022-09-22T16:15:51.999Z,100901.34
2022-09-22T16:21:05.689Z,100895.28
2022-09-22T16:26:08.456Z,100895.25
2022-09-22T16:31:13.466Z,100889.53
2022-09-22T16:36:17.639Z,100890.53
2022-09-22T16:41:22.110Z,100887.19
2022-09-22T16:46:29.940Z,100885.44
2022-09-22T16:51:36.287Z,100895.47
2022-09-22T16:56:39.510Z,100890.22
2022-09-22T17:01:43.754Z,100892.53
2022-09-22T17:06:48.673Z,100890.94
2022-09-22T17:11:52.567Z,100881.16
2022-09-22T17:16:57.267Z,100878.94
2022-09-22T17:22:01.444Z,100876.13
2022-09-22T17:27:05.572Z,100867.63
2022-09-22T17:32:09.027Z,100867.00
2022-09-22T17:37:15.626Z,100865.88
2022-09-22T17:42:19.136Z,100870.56
2022-09-22T17:47:38.773Z,100868.97
2022-09-22T17:53:05.677Z,100873.50
2022-09-22T17:58:10.199Z,100877.78
2022-09-22T18:03:13.056Z,100877.72
2022-09-22T18:08:17.901Z,100881.41
2022-09-22T18:13:20.884Z,100878.06
2022-09-22T18:18:24.031Z,100872.31
2022-09-22T18:23:28.980Z,100877.53
2022-09-22T18:28:31.828Z,100873.94
2022-09-22T18:33:36.487Z,100866.66
2022-09-22T18:38:42.293Z,100865.63
2022-09-22T18:43:45.338Z,100868.41
2022-09-22T18:48:49.436Z,100872.88
2022-09-22T18:53:54.285Z,100878.09
2022-09-22T18:58:57.174Z,100879.59
2022-09-22T19:03:59.811Z,100879.28
2022-09-22T19:09:03.964Z,100879.16
2022-09-22T19:14:07.871Z,100876.41
2022-09-22T19:19:10.617Z,100890.25
2022-09-22T19:24:14.751Z,100891.63
2022-09-22T19:29:17.539Z,100887.09
2022-09-22T19:34:20.600Z,100889.47
2022-09-22T19:39:25.466Z,100884.31
2022-09-22T19:44:30.084Z,100873.19
2022-09-22T19:49:32.863Z,100867.72
2022-09-22T19:54:37.010Z,100865.78
2022-09-22T19:59:39.892Z,100870.22
2022-09-22T20:04:42.728Z,100871.44
2022-09-22T20:09:46.867Z,100858.84
2022-09-22T20:14:51.399Z,100855.19
2022-09-22T20:19:55.179Z,100857.25
2022-09-22T20:25:01.960Z,100858.09
2022-09-22T20:30:06.574Z,100847.09
2022-09-22T20:35:11.890Z,100854.22
2022-09-22T20:40:20.391Z,100848.44
2022-09-22T20:45:24.790Z,100842.94
2022-09-22T20:50:27.654Z,100848.34
2022-09-22T20:55:31.889Z,100846.75
2022-09-22T21:00:35.017Z,100843.66
2022-09-22T21:05:37.785Z,100847.34
2022-09-22T21:10:41.931Z,100842.53
2022-09-22T21:15:44.787Z,100838.91
2022-09-22T21:20:47.654Z,100840.44
2022-09-22T21:25:58.256Z,100838.25
2022-09-22T21:31:02.401Z,100836.03
2022-09-22T21:36:08.565Z,100834.31
2022-09-22T21:41:14.660Z,100825.28
2022-09-22T21:46:19.048Z,100822.84
2022-09-22T21:51:22.976Z,100826.72
2022-09-22T21:56:27.203Z,100816.44
2022-09-22T22:01:32.335Z,100816.69
2022-09-22T22:06:40.092Z,100812.28
2022-09-22T22:11:46.643Z,100797.44
2022-09-22T22:16:50.990Z,100801.38
2022-09-22T22:21:54.841Z,100794.28
2022-09-22T22:27:01.286Z,100797.03
2022-09-22T22:32:05.334Z,100799.91
2022-09-22T22:37:10.053Z,100795.16
2022-09-22T22:42:14.232Z,100797.56
2022-09-22T22:47:17.237Z,100805.66
2022-09-22T22:52:20.168Z,100796.16
2022-09-22T22:57:24.311Z,100796.59
2022-09-22T23:02:27.089Z,100790.72
2022-09-22T23:07:29.676Z,100790.72
2022-09-22T23:12:34.514Z,100781.16
2022-09-22T23:17:37.347Z,100774.66
2022-09-22T23:22:39.909Z,100774.34
2022-09-22T23:27:49.089Z,100784.34
2022-09-22T23:32:51.834Z,100778.69
2022-09-22T23:37:54.586Z,100770.22
2022-09-22T23:42:59.694Z,100779.69
2022-09-22T23:48:02.841Z,100762.72
2022-09-22T23:53:05.601Z,100767.25
2022-09-22T23:58:09.794Z,100761.03
